createdAt,value
2023-02-22T00:01:35.541Z,101552.25
2023-02-22T00:04:05.295Z,101549.75
2023-02-22T00:06:32.635Z,101544.44
2023-02-22T00:08:59.901Z,101541.94
2023-02-22T00:11:26.987Z,101534.94
2023-02-22T00:13:57.337Z,101540.28
2023-02-22T00:16:25.913Z,101532.78
2023-02-22T00:18:53.499Z,101527.94
2023-02-22T00:21:21.463Z,101519.75
2023-02-22T00:23:49.073Z,101527.94
2023-02-22T00:26:18.530Z,101523.59
2023-02-22T00:28:54.129Z,101526.78
2023-02-22T00:31:21.579Z,101525.78
2023-02-22T00:33:49.529Z,101530.66
2023-02-22T00:36:17.626Z,101527.00
2023-02-22T00:38:44.370Z,101526.50
2023-02-22T00:41:11.939Z,101527.31
2023-02-22T00:43:38.718Z,101513.66
2023-02-22T00:46:05.656Z,101519.19
2023-02-22T00:48:32.759Z,101526.56
2023-02-22T00:50:59.551Z,101519.53
2023-02-22T00:53:26.603Z,101522.56
2023-02-22T00:55:54.326Z,101526.72
2023-02-22T00:58:22.153Z,101523.69
2023-02-22T01:00:49.989Z,101524.34
2023-02-22T01:03:20.033Z,101524.38
2023-02-22T01:05:47.595Z,101519.53
2023-02-22T01:08:15.653Z,101529.22
2023-02-22T01:10:43.082Z,101522.03
2023-02-22T01:13:12.577Z,101523.88
2023-02-22T01:15:42.795Z,101517.22
2023-02-22T01:18:09.988Z,101517.22
2023-02-22T01:20:37.010Z,101517.41
2023-02-22T01:23:07.022Z,101520.06
2023-02-22T01:25:35.145Z,101513.41
2023-02-22T01:28:03.423Z,101513.41
2023-02-22T01:30:35.567Z,101508.25
2023-02-22T01:33:05.806Z,101515.44
2023-02-22T01:35:35.359Z,101511.44
2023-02-22T01:38:02.567Z,101504.59
2023-02-22T01:40:35.143Z,101508.75
2023-02-22T01:43:14.563Z,101511.97
2023-02-22T01:46:02.775Z,101498.44
2023-02-22T01:48:35.595Z,101497.78
2023-02-22T01:51:10.753Z,101498.63
2023-02-22T01:53:44.022Z,101503.47
2023-02-22T01:56:11.943Z,101506.81
2023-02-22T01:58:42.481Z,101505.47
2023-02-22T02:01:10.351Z,101494.13
2023-02-22T02:03:40.299Z,101494.97
2023-02-22T02:06:12.037Z,101494.13
2023-02-22T02:09:00.101Z,101487.00
2023-02-22T02:11:26.991Z,101488.50
2023-02-22T02:13:58.932Z,101476.81
2023-02-22T02:16:40.936Z,101478.66
2023-02-22T02:19:24.366Z,101477.66
2023-02-22T02:22:33.006Z,101475.16
2023-02-22T02:25:11.234Z,101486.84
2023-02-22T02:27:56.736Z,101480.69
2023-02-22T02:30:43.304Z,101473.50
2023-02-22T02:33:23.416Z,101465.66
2023-02-22T02:35:59.190Z,101464.81
2023-02-22T02:38:45.423Z,101463.00
2023-02-22T02:41:19.155Z,101451.66
2023-02-22T02:44:31.289Z,101445.16
2023-02-22T02:47:11.461Z,101453.00
2023-02-22T02:49:43.536Z,101443.81
2023-02-22T02:52:13.372Z,101439.47
2023-02-22T02:54:41.454Z,101433.19
2023-02-22T02:57:09.465Z,101434.53
2023-02-22T02:59:37.913Z,101429.72
2023-02-22T03:02:42.136Z,101426.25
2023-02-22T03:05:20.967Z,101425.03
2023-02-22T03:08:07.794Z,101421.19
2023-02-22T03:11:01.826Z,101416.72
2023-02-22T03:13:57.485Z,101405.53
2023-02-22T03:16:39.632Z,101410.69
2023-02-22T03:19:18.642Z,101412.38
2023-02-22T03:22:26.257Z,101430.09
2023-02-22T03:25:07.189Z,101430.59
2023-02-22T03:27:43.517Z,101422.75
2023-02-22T03:30:18.010Z,101418.59
2023-02-22T03:32:50.740Z,101426.13
2023-02-22T03:35:25.754Z,101427.94
2023-02-22T03:37:56.787Z,101439.16
2023-02-22T03:40:31.866Z,101440.50
2023-02-22T03:43:14.645Z,101433.84
2023-02-22T03:45:46.918Z,101425.19
2023-02-22T03:48:20.926Z,101425.19
2023-02-22T03:50:49.241Z,101423.50
2023-02-22T03:53:18.628Z,101429.84
2023-02-22T03:55:53.022Z,101429.84
2023-02-22T03:58:22.800Z,101417.88
2023-02-22T04:00:53.137Z,101409.59
2023-02-22T04:03:21.440Z,101408.25
2023-02-22T04:05:48.534Z,101408.09
2023-02-22T04:08:16.258Z,101408.22
2023-02-22T04:10:43.250Z,101402.41
2023-02-22T04:13:10.720Z,101404.06
2023-02-22T04:15:40.914Z,101404.88
2023-02-22T04:18:09.974Z,101411.53
2023-02-22T04:20:36.814Z,101417.69
2023-02-22T04:23:10.903Z,101420.88
2023-02-22T04:25:39.723Z,101428.38
2023-02-22T04:28:15.172Z,101434.22
2023-02-22T04:30:47.012Z,101429.88
2023-02-22T04:33:16.302Z,101431.09
2023-02-22T04:35:43.118Z,101428.09
2023-02-22T04:38:09.906Z,101425.91
2023-02-22T04:40:39.183Z,101423.94
2023-02-22T04:43:07.043Z,101432.25
2023-02-22T04:45:34.068Z,101429.44
2023-02-22T04:48:03.927Z,101423.94
2023-02-22T04:50:30.805Z,101418.59
2023-02-22T04:52:57.588Z,101422.94
2023-02-22T04:55:24.705Z,101422.09
2023-02-22T04:57:51.546Z,101432.44
2023-02-22T05:00:21.838Z,101432.91
2023-02-22T05:02:50.586Z,101433.91
2023-02-22T05:05:21.515Z,101430.06
2023-02-22T05:07:49.315Z,101431.75
2023-02-22T05:10:16.915Z,101441.22
2023-02-22T05:12:43.798Z,101430.41
2023-02-22T05:15:11.231Z,101435.56
2023-02-22T05:17:37.972Z,101427.41
2023-02-22T05:20:05.272Z,101425.25
2023-02-22T05:22:32.034Z,101428.41
2023-02-22T05:24:58.851Z,101430.41
2023-02-22T05:27:25.531Z,101433.41
2023-02-22T05:29:52.289Z,101438.72
2023-02-22T05:32:19.106Z,101440.72
2023-02-22T05:34:45.888Z,101437.72
2023-02-22T05:37:12.631Z,101440.06
2023-02-22T05:39:39.387Z,101441.72
2023-02-22T05:42:06.123Z,101445.06
2023-02-22T05:44:32.848Z,101449.72
2023-02-22T05:46:59.623Z,101452.19
2023-02-22T05:49:26.387Z,101451.69
2023-02-22T05:51:55.794Z,101454.31
2023-02-22T05:54:22.703Z,101455.81
2023-02-22T05:56:49.475Z,101464.91
2023-02-22T05:59:16.169Z,101464.91
2023-02-22T06:01:42.875Z,101452.91
2023-02-22T06:04:09.616Z,101454.09
2023-02-22T06:06:36.387Z,101453.22
2023-02-22T06:09:03.379Z,101461.91
2023-02-22T06:11:30.167Z,101457.59
2023-02-22T06:13:56.977Z,101463.22
2023-02-22T06:16:23.890Z,101464.38
2023-02-22T06:18:50.892Z,101455.88
2023-02-22T06:21:18.039Z,101462.97
2023-02-22T06:23:45.300Z,101457.97
2023-02-22T06:26:12.126Z,101467.53
2023-02-22T06:28:38.926Z,101461.34
2023-02-22T06:31:05.916Z,101460.53
2023-02-22T06:33:32.701Z,101468.38
2023-02-22T06:35:59.537Z,101471.03
2023-02-22T06:38:27.848Z,101469.69
2023-02-22T06:40:55.397Z,101473.75
2023-02-22T06:43:24.656Z,101478.22
2023-02-22T06:45:52.665Z,101467.25
2023-02-22T06:48:19.653Z,101466.22
2023-02-22T06:50:46.489Z,101464.44
2023-02-22T06:53:13.309Z,101467.25
2023-02-22T06:55:40.043Z,101471.59
2023-02-22T06:58:06.812Z,101465.31
2023-02-22T07:00:33.641Z,101470.78
2023-02-22T07:03:01.288Z,101477.06
2023-02-22T07:05:28.550Z,101478.69
2023-02-22T07:08:02.289Z,101482.66
2023-02-22T07:10:31.584Z,101479.44
2023-02-22T07:12:58.515Z,101481.72
2023-02-22T07:15:28.020Z,101483.34
2023-02-22T07:17:55.253Z,101486.63
2023-02-22T07:20:24.558Z,101476.22
2023-02-22T07:22:51.869Z,101490.88
2023-02-22T07:25:19.404Z,101489.78
2023-02-22T07:27:47.112Z,101488.81
2023-02-22T07:30:18.727Z,101487.34
2023-02-22T07:32:46.941Z,101486.19
2023-02-22T07:35:19.162Z,101491.81
2023-02-22T07:37:48.244Z,101496.63
2023-02-22T07:40:17.378Z,101500.63
2023-02-22T07:43:06.591Z,101504.81
2023-02-22T07:45:35.694Z,101508.28
2023-02-22T07:48:04.844Z,101507.03
2023-02-22T07:50:33.675Z,101515.63
2023-02-22T07:53:03.524Z,101511.81
2023-02-22T07:55:32.160Z,101515.59
2023-02-22T07:58:01.809Z,101509.47
2023-02-22T08:00:31.789Z,101507.22
2023-02-22T08:03:00.459Z,101504.72
2023-02-22T08:05:29.022Z,101509.41
2023-02-22T08:07:56.373Z,101512.91
2023-02-22T08:10:25.450Z,101522.25
2023-02-22T08:12:52.993Z,101517.13
2023-02-22T08:15:26.415Z,101517.97
2023-02-22T08:17:53.699Z,101522.66
2023-02-22T08:20:21.099Z,101522.50
2023-02-22T08:22:48.789Z,101517.50
2023-02-22T08:25:17.314Z,101520.19
2023-02-22T08:27:44.530Z,101514.34
2023-02-22T08:30:23.478Z,101523.84
2023-02-22T08:32:51.203Z,101524.34
2023-02-22T08:35:22.548Z,101526.66
2023-02-22T08:37:54.537Z,101527.66
2023-02-22T08:40:23.712Z,101519.94
2023-02-22T08:42:52.122Z,101515.66
2023-02-22T08:45:19.887Z,101512.97
2023-02-22T08:47:47.381Z,101509.75
2023-02-22T08:50:36.405Z,101511.19
2023-02-22T08:53:05.875Z,101506.25
2023-02-22T08:55:39.663Z,101505.88
2023-02-22T08:58:10.162Z,101510.31
2023-02-22T09:00:39.231Z,101511.75
2023-02-22T09:03:09.013Z,101505.66
2023-02-22T09:05:36.330Z,101508.59
2023-02-22T09:08:05.045Z,101510.66
2023-02-22T09:10:34.069Z,101514.06
2023-02-22T09:13:02.308Z,101508.31
2023-02-22T09:15:30.003Z,101511.75
2023-02-22T09:17:56.999Z,101507.31
2023-02-22T09:20:24.819Z,101504.84
2023-02-22T09:22:52.225Z,101501.22
2023-02-22T09:25:22.601Z,101506.31
2023-02-22T09:27:51.480Z,101506.88
2023-02-22T09:30:32.133Z,101503.34
2023-02-22T09:33:04.674Z,101510.66
2023-02-22T09:35:31.612Z,101510.50
2023-02-22T09:38:00.286Z,101507.91
2023-02-22T09:40:30.961Z,101517.59
2023-02-22T09:43:16.920Z,101516.16
2023-02-22T09:46:03.889Z,101516.97
2023-02-22T09:48:36.425Z,101513.19
2023-02-22T09:51:11.660Z,101517.50
2023-02-22T09:53:44.427Z,101512.28
2023-02-22T09:56:14.673Z,101512.25
2023-02-22T09:58:47.624Z,101515.44
2023-02-22T10:01:20.250Z,101515.13
2023-02-22T10:03:58.369Z,101515.38
2023-02-22T10:06:25.342Z,101508.34
2023-02-22T10:08:56.505Z,101510.84
2023-02-22T10:11:29.130Z,101511.88
2023-02-22T10:13:58.804Z,101512.63
2023-02-22T10:16:30.855Z,101509.69
2023-02-22T10:19:08.381Z,101513.03
2023-02-22T10:22:05.046Z,101509.94
2023-02-22T10:24:40.042Z,101508.41
2023-02-22T10:27:13.474Z,101510.13
2023-02-22T10:29:43.870Z,101510.31
2023-02-22T10:32:35.516Z,101508.44
2023-02-22T10:35:06.387Z,101505.84
2023-02-22T10:37:34.713Z,101510.63
2023-02-22T10:40:20.485Z,101510.63
2023-02-22T10:42:47.566Z,101514.47
2023-02-22T10:45:23.841Z,101512.06
2023-02-22T10:47:55.071Z,101512.13
2023-02-22T10:50:22.708Z,101516.72
2023-02-22T10:52:49.456Z,101513.66
2023-02-22T10:55:17.360Z,101517.41
2023-02-22T10:57:51.294Z,101518.47
2023-02-22T11:00:26.489Z,101513.19
2023-02-22T11:02:57.990Z,101506.41
2023-02-22T11:05:38.606Z,101511.41
2023-02-22T11:08:30.771Z,101510.47
2023-02-22T11:11:01.979Z,101510.75
2023-02-22T11:13:34.508Z,101506.91
2023-02-22T11:16:23.279Z,101510.66
2023-02-22T11:18:50.151Z,101505.25
2023-02-22T11:21:23.325Z,101490.88
2023-02-22T11:24:00.564Z,101513.16
2023-02-22T11:26:28.484Z,101493.56
2023-02-22T11:28:56.425Z,101503.91
2023-02-22T11:31:27.322Z,101495.97
2023-02-22T11:33:58.631Z,101494.50
2023-02-22T11:36:30.809Z,101487.19
2023-02-22T11:39:00.767Z,101482.63
2023-02-22T11:41:30.078Z,101484.25
2023-02-22T11:44:21.861Z,101481.47
2023-02-22T11:46:49.232Z,101476.50
2023-02-22T11:49:17.553Z,101474.47
2023-02-22T11:52:08.393Z,101470.59
2023-02-22T11:54:47.894Z,101475.50
2023-02-22T11:57:37.275Z,101474.06
2023-02-22T12:00:24.906Z,101479.44
2023-02-22T12:03:28.673Z,101469.06
2023-02-22T12:06:01.627Z,101464.50
2023-02-22T12:09:00.263Z,101466.03
2023-02-22T12:11:37.531Z,101464.34
2023-02-22T12:14:32.168Z,101455.88
2023-02-22T12:17:19.600Z,101457.16
2023-02-22T12:19:48.898Z,101456.84
2023-02-22T12:22:23.077Z,101453.28
2023-02-22T12:25:09.102Z,101444.16
2023-02-22T12:28:23.711Z,101441.41
2023-02-22T12:31:02.959Z,101447.41
2023-02-22T12:33:42.582Z,101432.88
2023-02-22T12:36:14.146Z,101419.78
2023-02-22T12:38:46.939Z,101423.91
2023-02-22T12:41:27.740Z,101425.16
2023-02-22T12:44:02.451Z,101421.28
2023-02-22T12:46:49.510Z,101423.59
2023-02-22T12:49:36.319Z,101426.75
2023-02-22T12:52:27.718Z,101422.09
2023-02-22T12:55:16.661Z,101418.09
2023-02-22T12:58:17.887Z,101413.88
2023-02-22T13:01:22.766Z,101414.09
2023-02-22T13:03:49.710Z,101412.31
2023-02-22T13:06:45.061Z,101414.59
2023-02-22T13:09:48.817Z,101415.84
2023-02-22T13:12:23.160Z,101405.03
2023-02-22T13:15:03.882Z,101407.72
2023-02-22T13:18:01.311Z,101403.88
2023-02-22T13:20:31.558Z,101395.25
2023-02-22T13:23:10.369Z,101390.50
2023-02-22T13:25:40.803Z,101380.53
2023-02-22T13:28:13.545Z,101400.66
2023-02-22T13:31:10.830Z,101384.84
2023-02-22T13:34:04.132Z,101381.84
2023-02-22T13:37:03.126Z,101379.06
2023-02-22T13:39:57.462Z,101378.22
2023-02-22T13:42:46.144Z,101373.84
2023-02-22T13:45:40.345Z,101376.34
2023-02-22T13:48:19.073Z,101365.16
2023-02-22T13:51:04.681Z,101365.81
2023-02-22T13:54:04.059Z,101357.75
2023-02-22T13:56:31.066Z,101356.22
2023-02-22T13:59:00.941Z,101353.50
2023-02-22T14:01:41.193Z,101356.47
2023-02-22T14:04:26.983Z,101360.00
2023-02-22T14:07:23.781Z,101349.00
2023-02-22T14:09:51.954Z,101345.41
2023-02-22T14:12:29.135Z,101343.78
2023-02-22T14:15:27.721Z,101343.31
2023-02-22T14:18:03.309Z,101340.28
2023-02-22T14:20:36.071Z,101338.97
2023-02-22T14:23:28.989Z,101341.09
2023-02-22T14:25:57.257Z,101331.66
2023-02-22T14:28:33.110Z,101337.34
2023-02-22T14:31:29.408Z,101339.94
2023-02-22T14:34:15.994Z,101324.69
2023-02-22T14:36:45.348Z,101318.78
2023-02-22T14:39:15.080Z,101332.13
2023-02-22T14:41:49.166Z,101327.03
2023-02-22T14:44:23.900Z,101331.19
2023-02-22T14:46:53.263Z,101325.38
2023-02-22T14:49:24.608Z,101332.59
2023-02-22T14:51:57.921Z,101335.34
2023-02-22T14:54:47.911Z,101329.56
2023-02-22T14:57:24.398Z,101324.19
2023-02-22T15:00:06.119Z,101329.91
2023-02-22T15:02:41.572Z,101326.44
2023-02-22T15:05:14.490Z,101327.03
2023-02-22T15:07:51.360Z,101320.09
2023-02-22T15:10:23.991Z,101323.31
2023-02-22T15:13:09.092Z,101323.22
2023-02-22T15:15:49.466Z,101324.00
2023-02-22T15:18:24.115Z,101319.81
2023-02-22T15:20:56.440Z,101321.50
2023-02-22T15:23:33.382Z,101322.97
2023-02-22T15:26:00.416Z,101327.50
2023-02-22T15:28:31.141Z,101330.56
2023-02-22T15:31:24.308Z,101320.09
2023-02-22T15:33:55.602Z,101320.53
2023-02-22T15:36:27.795Z,101319.22
2023-02-22T15:38:55.881Z,101316.69
2023-02-22T15:41:32.700Z,101319.16
2023-02-22T15:44:23.300Z,101320.28
2023-02-22T15:46:50.878Z,101317.41
2023-02-22T15:49:23.245Z,101327.31
2023-02-22T15:52:06.634Z,101321.50
2023-02-22T15:55:02.919Z,101328.19
2023-02-22T15:57:30.560Z,101324.34
2023-02-22T15:59:58.192Z,101329.44
2023-02-22T16:02:33.610Z,101328.31
2023-02-22T16:05:13.443Z,101324.47
2023-02-22T16:07:45.394Z,101326.38
2023-02-22T16:10:24.334Z,101321.69
2023-02-22T16:13:04.605Z,101325.19
2023-02-22T16:15:34.669Z,101328.41
2023-02-22T16:18:24.634Z,101327.53
2023-02-22T16:21:01.644Z,101325.09
2023-02-22T16:23:30.315Z,101322.94
2023-02-22T16:26:27.950Z,101324.97
2023-02-22T16:29:06.380Z,101319.59
2023-02-22T16:31:40.109Z,101323.84
2023-02-22T16:34:08.454Z,101325.66
2023-02-22T16:36:47.062Z,101323.31
2023-02-22T16:39:32.412Z,101322.09
2023-02-22T16:42:03.241Z,101324.22
2023-02-22T16:44:30.053Z,101321.59
2023-02-22T16:47:00.759Z,101320.56
2023-02-22T16:49:27.576Z,101322.31
2023-02-22T16:51:58.719Z,101325.66
2023-02-22T16:54:34.288Z,101332.38
2023-02-22T16:57:04.088Z,101329.72
2023-02-22T16:59:38.686Z,101336.72
2023-02-22T17:02:08.325Z,101339.69
2023-02-22T17:04:35.184Z,101340.69
2023-02-22T17:07:05.026Z,101339.94
2023-02-22T17:09:32.933Z,101344.94
2023-02-22T17:12:00.348Z,101342.91
2023-02-22T17:14:31.819Z,101342.56
2023-02-22T17:16:59.440Z,101348.91
2023-02-22T17:19:26.739Z,101352.16
2023-02-22T17:21:53.459Z,101346.97
2023-02-22T17:24:23.024Z,101355.53
2023-02-22T17:26:50.194Z,101351.31
2023-02-22T17:29:17.937Z,101354.44
2023-02-22T17:31:45.415Z,101361.91
2023-02-22T17:34:12.192Z,101363.28
2023-02-22T17:36:38.983Z,101367.63
2023-02-22T17:39:06.308Z,101371.19
2023-02-22T17:41:33.004Z,101367.25
2023-02-22T17:43:59.712Z,101376.09
2023-02-22T17:46:26.557Z,101376.63
2023-02-22T17:48:56.295Z,101374.34
2023-02-22T17:51:25.523Z,101379.56
2023-02-22T17:53:52.240Z,101384.41
2023-02-22T17:56:20.014Z,101389.06
2023-02-22T17:58:49.830Z,101385.47
2023-02-22T18:01:34.766Z,101385.41
2023-02-22T18:04:02.556Z,101394.03
2023-02-22T18:06:32.813Z,101389.06
2023-02-22T18:09:01.321Z,101393.41
2023-02-22T18:11:32.541Z,101397.56
2023-02-22T18:13:59.803Z,101403.44
2023-02-22T18:16:27.057Z,101401.03
2023-02-22T18:18:55.325Z,101398.28
2023-02-22T18:21:22.876Z,101397.91
2023-02-22T18:23:49.680Z,101401.06
2023-02-22T18:26:18.489Z,101400.75
2023-02-22T18:28:45.553Z,101404.47
2023-02-22T18:31:15.031Z,101396.28
2023-02-22T18:33:43.325Z,101404.47
2023-02-22T18:36:14.262Z,101404.19
2023-02-22T18:38:43.181Z,101408.16
2023-02-22T18:41:15.821Z,101405.47
2023-02-22T18:43:43.012Z,101402.81
2023-02-22T18:46:12.660Z,101398.75
2023-02-22T18:48:39.966Z,101398.09
2023-02-22T18:51:09.957Z,101403.25
2023-02-22T18:53:38.356Z,101408.06
2023-02-22T18:56:08.515Z,101405.59
2023-02-22T18:58:35.922Z,101398.38
2023-02-22T19:01:03.930Z,101394.72
2023-02-22T19:03:32.229Z,101398.19
2023-02-22T19:06:03.302Z,101401.53
2023-02-22T19:08:32.521Z,101401.72
2023-02-22T19:11:04.092Z,101403.38
2023-02-22T19:13:31.775Z,101403.38
2023-02-22T19:15:58.694Z,101403.38
2023-02-22T19:18:25.584Z,101413.88
2023-02-22T19:20:59.308Z,101408.72
2023-02-22T19:23:28.344Z,101406.22
2023-02-22T19:25:55.135Z,101405.03
2023-02-22T19:28:28.042Z,101408.72
2023-02-22T19:30:54.943Z,101400.88
2023-02-22T19:33:25.977Z,101404.22
2023-02-22T19:35:52.780Z,101403.38
2023-02-22T19:38:20.334Z,101405.84
2023-02-22T19:40:48.372Z,101402.53
2023-02-22T19:43:15.161Z,101404.75
2023-02-22T19:45:41.908Z,101399.69
2023-02-22T19:48:08.740Z,101404.66
2023-02-22T19:50:35.575Z,101397.31
2023-02-22T19:53:02.330Z,101397.31
2023-02-22T19:55:32.327Z,101400.16
2023-02-22T19:57:59.484Z,101392.34
2023-02-22T20:00:27.804Z,101398.69
2023-02-22T20:03:05.748Z,101399.06
2023-02-22T20:05:33.969Z,101398.38
2023-02-22T20:08:00.752Z,101398.75
2023-02-22T20:10:27.661Z,101401.81
2023-02-22T20:12:54.404Z,101394.78
2023-02-22T20:15:26.219Z,101392.19
2023-02-22T20:17:53.072Z,101387.56
2023-02-22T20:20:19.887Z,101384.63
2023-02-22T20:22:46.556Z,101390.16
2023-02-22T20:25:13.810Z,101388.94
2023-02-22T20:27:40.704Z,101389.28
2023-02-22T20:30:10.015Z,101391.69
2023-02-22T20:32:38.213Z,101388.19
2023-02-22T20:35:06.981Z,101382.66
2023-02-22T20:37:34.262Z,101395.81
2023-02-22T20:40:04.170Z,101392.16
2023-02-22T20:42:31.885Z,101385.81
2023-02-22T20:45:01.918Z,101386.22
2023-02-22T20:47:29.011Z,101388.75
2023-02-22T20:49:56.001Z,101391.25
2023-02-22T20:52:22.866Z,101383.88
2023-02-22T20:54:49.644Z,101393.56
2023-02-22T20:57:16.390Z,101393.09
2023-02-22T20:59:44.393Z,101390.44
2023-02-22T21:02:11.210Z,101398.25
2023-02-22T21:04:38.044Z,101400.94
2023-02-22T21:07:05.329Z,101393.91
2023-02-22T21:09:33.895Z,101401.75
2023-02-22T21:12:00.749Z,101398.13
2023-02-22T21:14:28.401Z,101400.81
2023-02-22T21:16:55.157Z,101402.47
2023-02-22T21:19:28.141Z,101404.84
2023-02-22T21:22:01.444Z,101404.66
2023-02-22T21:24:29.554Z,101400.75
2023-02-22T21:26:58.943Z,101400.94
2023-02-22T21:29:26.863Z,101395.94
2023-02-22T21:31:53.949Z,101398.06
2023-02-22T21:34:22.331Z,101401.94
2023-02-22T21:36:50.545Z,101387.75
2023-02-22T21:39:20.494Z,101385.28
2023-02-22T21:41:50.545Z,101385.28
2023-02-22T21:44:18.705Z,101385.50
2023-02-22T21:46:48.799Z,101384.06
2023-02-22T21:49:16.553Z,101385.34
2023-02-22T21:51:44.802Z,101381.19
2023-02-22T21:54:12.705Z,101378.09
2023-02-22T21:56:42.119Z,101367.94
2023-02-22T21:59:14.662Z,101372.44
2023-02-22T22:01:47.950Z,101356.16
2023-02-22T22:04:20.572Z,101360.19
2023-02-22T22:06:49.985Z,101361.16
2023-02-22T22:09:20.721Z,101359.69
2023-02-22T22:11:52.115Z,101359.00
2023-02-22T22:14:20.764Z,101357.69
2023-02-22T22:16:58.736Z,101356.19
2023-02-22T22:19:27.113Z,101356.00
2023-02-22T22:21:54.181Z,101354.41
2023-02-22T22:24:22.701Z,101352.53
2023-02-22T22:26:54.559Z,101351.69
2023-02-22T22:29:23.730Z,101347.19
2023-02-22T22:31:51.434Z,101343.75
2023-02-22T22:34:19.522Z,101333.56
2023-02-22T22:36:46.728Z,101337.47
2023-02-22T22:39:13.634Z,101332.47
2023-02-22T22:41:44.955Z,101328.13
2023-02-22T22:44:15.365Z,101317.44
2023-02-22T22:46:43.626Z,101310.09
2023-02-22T22:49:13.435Z,101317.91
2023-02-22T22:51:47.419Z,101307.56
2023-02-22T22:54:14.726Z,101306.66
2023-02-22T22:56:41.581Z,101300.66
2023-02-22T22:59:10.309Z,101295.31
2023-02-22T23:01:40.707Z,101295.63
2023-02-22T23:04:10.002Z,101293.25
2023-02-22T23:06:40.135Z,101290.38
2023-02-22T23:09:21.747Z,101289.38
2023-02-22T23:12:09.178Z,101290.94
2023-02-22T23:14:39.233Z,101287.53
2023-02-22T23:17:15.966Z,101288.09
2023-02-22T23:19:44.943Z,101287.25
2023-02-22T23:22:14.519Z,101293.09
2023-02-22T23:24:41.642Z,101290.78
2023-02-22T23:27:10.810Z,101291.44
2023-02-22T23:29:39.901Z,101281.84
2023-02-22T23:32:07.623Z,101288.19
2023-02-22T23:34:36.838Z,101278.50
2023-02-22T23:37:03.811Z,101282.00
2023-02-22T23:39:30.575Z,101269.94
2023-02-22T23:41:59.290Z,101275.56
2023-02-22T23:44:27.619Z,101269.59
2023-02-22T23:46:55.812Z,101268.63
2023-02-22T23:49:27.101Z,101262.31
2023-02-22T23:51:54.880Z,101259.78
2023-02-22T23:54:24.444Z,101253.47
2023-02-22T23:56:56.984Z,101258.13
2023-02-22T23:59:25.935Z,101255.28
